createdAt,value
2023-05-01T00:00:25.719Z,101530.60
2023-05-01T00:03:18.201Z,101532.02
2023-05-01T00:06:05.956Z,101534.14
2023-05-01T00:08:54.114Z,101532.20
2023-05-01T00:11:41.183Z,101535.00
2023-05-01T00:14:28.852Z,101534.67
2023-05-01T00:17:15.570Z,101536.25
2023-05-01T00:20:02.359Z,101535.20
2023-05-01T00:22:49.307Z,101537.31
2023-05-01T00:25:36.419Z,101538.17
2023-05-01T00:28:24.200Z,101539.60
2023-05-01T00:31:11.036Z,101539.95
2023-05-01T00:33:57.902Z,101539.95
2023-05-01T00:36:44.808Z,101542.95
2023-05-01T00:39:32.353Z,101547.16
2023-05-01T00:42:19.549Z,101551.03
2023-05-01T00:45:08.005Z,101551.22
2023-05-01T00:47:54.924Z,101551.73
2023-05-01T00:50:45.877Z,101550.49
2023-05-01T00:53:33.889Z,101552.59
2023-05-01T00:56:22.900Z,101555.39
2023-05-01T00:59:10.275Z,101558.17
2023-05-01T01:01:57.982Z,101560.42
2023-05-01T01:04:47.044Z,101562.29
2023-05-01T01:07:55.839Z,101565.33
2023-05-01T01:11:04.137Z,101565.55
2023-05-01T01:14:03.999Z,101572.08
2023-05-01T01:16:54.177Z,101570.39
2023-05-01T01:20:06.149Z,101569.73
2023-05-01T01:23:22.071Z,101568.76
2023-05-01T01:26:40.346Z,101575.02
2023-05-01T01:29:46.604Z,101575.41
2023-05-01T01:33:13.093Z,101575.84
2023-05-01T01:36:07.508Z,101579.55
2023-05-01T01:39:09.201Z,101579.39
2023-05-01T01:41:59.469Z,101577.10
2023-05-01T01:44:54.923Z,101577.64
2023-05-01T01:47:44.457Z,101578.71
2023-05-01T01:50:34.713Z,101582.60
2023-05-01T01:53:24.467Z,101577.30
2023-05-01T01:56:13.451Z,101579.05
2023-05-01T01:59:01.454Z,101583.39
2023-05-01T02:01:51.271Z,101581.95
2023-05-01T02:04:41.938Z,101580.54
2023-05-01T02:07:30.110Z,101582.45
2023-05-01T02:10:18.028Z,101584.16
2023-05-01T02:13:06.420Z,101585.17
2023-05-01T02:15:54.162Z,101587.09
2023-05-01T02:18:41.777Z,101589.67
2023-05-01T02:21:31.273Z,101590.52
2023-05-01T02:24:19.771Z,101591.38
2023-05-01T02:27:17.295Z,101591.57
2023-05-01T02:30:05.857Z,101593.63
2023-05-01T02:32:53.177Z,101596.73
2023-05-01T02:35:47.379Z,101599.43
2023-05-01T02:38:35.549Z,101599.83
2023-05-01T02:41:23.606Z,101601.26
2023-05-01T02:44:13.137Z,101600.83
2023-05-01T02:47:03.048Z,101602.62
2023-05-01T02:49:52.868Z,101603.95
2023-05-01T02:52:41.238Z,101606.77
2023-05-01T02:55:54.388Z,101608.15
2023-05-01T02:58:41.351Z,101612.90
2023-05-01T03:01:28.662Z,101608.33
2023-05-01T03:04:15.973Z,101607.55
2023-05-01T03:07:04.844Z,101609.98
2023-05-01T03:09:52.031Z,101615.58
2023-05-01T03:12:39.213Z,101616.61
2023-05-01T03:15:26.669Z,101620.10
2023-05-01T03:18:13.876Z,101622.77
2023-05-01T03:21:00.505Z,101621.69
2023-05-01T03:23:47.899Z,101626.63
2023-05-01T03:26:34.454Z,101629.05
2023-05-01T03:29:21.529Z,101631.35
2023-05-01T03:32:08.300Z,101632.63
2023-05-01T03:34:56.165Z,101634.99
2023-05-01T03:37:43.330Z,101638.79
2023-05-01T03:40:31.898Z,101639.11
2023-05-01T03:43:41.879Z,101642.80
2023-05-01T03:46:36.229Z,101649.66
2023-05-01T03:49:23.762Z,101653.36
2023-05-01T03:52:12.142Z,101650.05
2023-05-01T03:54:59.318Z,101656.73
2023-05-01T03:57:54.240Z,101657.94
2023-05-01T04:00:41.952Z,101653.80
2023-05-01T04:03:29.209Z,101660.42
2023-05-01T04:06:17.530Z,101654.67
2023-05-01T04:09:06.009Z,101656.30
2023-05-01T04:11:52.917Z,101657.40
2023-05-01T04:14:39.484Z,101652.67
2023-05-01T04:17:26.676Z,101656.58
2023-05-01T04:20:13.777Z,101656.95
2023-05-01T04:23:01.400Z,101662.23
2023-05-01T04:25:48.191Z,101661.36
2023-05-01T04:28:36.956Z,101662.44
2023-05-01T04:31:24.605Z,101664.38
2023-05-01T04:34:11.861Z,101661.56
2023-05-01T04:36:59.004Z,101660.66
2023-05-01T04:39:45.790Z,101659.23
2023-05-01T04:42:33.203Z,101665.07
2023-05-01T04:45:20.829Z,101660.80
2023-05-01T04:48:07.982Z,101664.31
2023-05-01T04:50:55.521Z,101664.63
2023-05-01T04:53:43.117Z,101666.33
2023-05-01T04:56:40.486Z,101669.27
2023-05-01T04:59:27.483Z,101675.21
2023-05-01T05:02:14.864Z,101673.89
2023-05-01T05:05:01.696Z,101676.11
2023-05-01T05:07:50.384Z,101675.85
2023-05-01T05:11:00.369Z,101681.05
2023-05-01T05:13:54.206Z,101680.05
2023-05-01T05:16:41.965Z,101679.57
2023-05-01T05:19:31.566Z,101682.77
2023-05-01T05:22:19.882Z,101685.42
2023-05-01T05:25:26.195Z,101690.35
2023-05-01T05:28:13.497Z,101703.60
2023-05-01T05:31:00.597Z,101700.90
2023-05-01T05:33:47.351Z,101707.61
2023-05-01T05:36:35.717Z,101706.55
2023-05-01T05:39:25.939Z,101707.26
2023-05-01T05:42:12.933Z,101704.58
2023-05-01T05:44:59.436Z,101710.23
2023-05-01T05:47:47.391Z,101711.66
2023-05-01T05:50:34.709Z,101713.45
2023-05-01T05:53:25.579Z,101715.20
2023-05-01T05:56:13.483Z,101722.48
2023-05-01T05:59:03.676Z,101728.16
2023-05-01T06:01:50.822Z,101734.00
2023-05-01T06:04:37.493Z,101737.56
2023-05-01T06:07:25.784Z,101743.46
2023-05-01T06:10:12.573Z,101740.21
2023-05-01T06:13:13.219Z,101740.88
2023-05-01T06:16:02.084Z,101744.69
2023-05-01T06:18:49.910Z,101751.70
2023-05-01T06:21:36.901Z,101751.35
2023-05-01T06:24:24.990Z,101756.36
2023-05-01T06:27:13.445Z,101762.12
2023-05-01T06:30:00.162Z,101765.25
2023-05-01T06:32:47.276Z,101767.33
2023-05-01T06:35:34.413Z,101769.98
2023-05-01T06:38:21.659Z,101772.60
2023-05-01T06:41:08.369Z,101773.97
2023-05-01T06:43:55.016Z,101775.84
2023-05-01T06:46:41.745Z,101782.90
2023-05-01T06:49:28.580Z,101782.05
2023-05-01T06:52:15.366Z,101790.09
2023-05-01T06:55:02.523Z,101795.31
2023-05-01T06:57:49.846Z,101795.92
2023-05-01T07:00:37.413Z,101802.06
2023-05-01T07:03:24.471Z,101803.35
2023-05-01T07:06:11.723Z,101809.15
2023-05-01T07:09:00.229Z,101809.87
2023-05-01T07:11:47.085Z,101811.48
2023-05-01T07:14:36.035Z,101818.77
2023-05-01T07:17:23.340Z,101816.73
2023-05-01T07:20:11.596Z,101817.43
2023-05-01T07:23:01.595Z,101820.58
2023-05-01T07:25:48.164Z,101819.98
2023-05-01T07:28:35.180Z,101821.71
2023-05-01T07:31:22.904Z,101823.56
2023-05-01T07:34:09.681Z,101828.82
2023-05-01T07:36:57.121Z,101834.39
2023-05-01T07:39:44.922Z,101838.01
2023-05-01T07:42:31.892Z,101840.27
2023-05-01T07:45:19.325Z,101846.30
2023-05-01T07:48:06.596Z,101850.16
2023-05-01T07:50:54.423Z,101851.35
2023-05-01T07:53:42.499Z,101853.17
2023-05-01T07:56:29.345Z,101857.34
2023-05-01T07:59:16.623Z,101859.21
2023-05-01T08:02:03.707Z,101860.80
2023-05-01T08:04:51.013Z,101862.64
2023-05-01T08:07:38.112Z,101863.09
2023-05-01T08:10:24.807Z,101863.73
2023-05-01T08:13:11.674Z,101865.64
2023-05-01T08:16:03.320Z,101870.38
2023-05-01T08:18:50.649Z,101873.64
2023-05-01T08:21:37.784Z,101872.52
2023-05-01T08:24:26.453Z,101872.77
2023-05-01T08:27:14.941Z,101871.05
2023-05-01T08:30:01.913Z,101868.67
2023-05-01T08:32:49.850Z,101870.80
2023-05-01T08:35:36.675Z,101876.77
2023-05-01T08:38:24.602Z,101877.46
2023-05-01T08:41:16.861Z,101871.95
2023-05-01T08:44:08.704Z,101875.92
2023-05-01T08:47:12.714Z,101872.15
2023-05-01T08:50:00.243Z,101878.60
2023-05-01T08:52:47.810Z,101880.57
2023-05-01T08:55:36.700Z,101879.43
2023-05-01T08:58:26.579Z,101879.25
2023-05-01T09:01:16.203Z,101879.77
2023-05-01T09:04:04.359Z,101875.15
2023-05-01T09:06:53.628Z,101871.12
2023-05-01T09:09:40.534Z,101872.59
2023-05-01T09:12:28.502Z,101876.92
2023-05-01T09:15:16.131Z,101880.48
2023-05-01T09:18:04.198Z,101881.06
2023-05-01T09:20:51.635Z,101878.62
2023-05-01T09:23:40.979Z,101877.83
2023-05-01T09:26:28.045Z,101877.92
2023-05-01T09:29:38.296Z,101879.39
2023-05-01T09:32:29.942Z,101886.94
2023-05-01T09:35:18.237Z,101884.39
2023-05-01T09:38:04.939Z,101889.78
2023-05-01T09:40:56.621Z,101890.50
2023-05-01T09:43:49.121Z,101890.10
2023-05-01T09:46:44.089Z,101895.48
2023-05-01T09:49:50.122Z,101893.30
2023-05-01T09:52:37.127Z,101894.09
2023-05-01T09:55:25.763Z,101898.19
2023-05-01T09:58:28.427Z,101894.57
2023-05-01T10:01:15.412Z,101894.27
2023-05-01T10:04:03.288Z,101893.41
2023-05-01T10:06:50.095Z,101893.94
2023-05-01T10:09:36.748Z,101902.31
2023-05-01T10:12:30.738Z,101908.55
2023-05-01T10:15:25.396Z,101907.36
2023-05-01T10:18:14.768Z,101906.59
2023-05-01T10:21:01.914Z,101909.34
2023-05-01T10:23:49.097Z,101915.87
2023-05-01T10:26:37.704Z,101917.20
2023-05-01T10:29:27.940Z,101910.30
2023-05-01T10:32:15.704Z,101907.67
2023-05-01T10:35:07.335Z,101905.80
2023-05-01T10:38:04.092Z,101910.05
2023-05-01T10:40:51.894Z,101916.50
2023-05-01T10:43:40.195Z,101913.52
2023-05-01T10:46:27.774Z,101915.94
2023-05-01T10:49:14.309Z,101918.59
2023-05-01T10:52:02.956Z,101924.66
2023-05-01T10:54:49.744Z,101926.04
2023-05-01T10:57:45.456Z,101925.77
2023-05-01T11:00:34.507Z,101927.40
2023-05-01T11:03:21.492Z,101927.54
2023-05-01T11:06:09.118Z,101928.61
2023-05-01T11:08:57.100Z,101932.48
2023-05-01T11:11:43.788Z,101932.77
2023-05-01T11:15:04.654Z,101928.52
2023-05-01T11:17:52.825Z,101927.84
2023-05-01T11:20:48.652Z,101929.23
2023-05-01T11:23:36.782Z,101927.73
2023-05-01T11:26:25.840Z,101931.41
2023-05-01T11:29:12.753Z,101929.86
2023-05-01T11:32:00.995Z,101929.30
2023-05-01T11:34:51.263Z,101934.11
2023-05-01T11:37:44.866Z,101937.07
2023-05-01T11:40:34.530Z,101941.31
2023-05-01T11:43:21.656Z,101943.87
2023-05-01T11:46:12.292Z,101950.30
2023-05-01T11:49:02.726Z,101949.55
2023-05-01T11:51:57.529Z,101945.20
2023-05-01T11:54:48.746Z,101947.27
2023-05-01T11:57:53.906Z,101945.47
2023-05-01T12:00:44.028Z,101940.05
2023-05-01T12:03:42.791Z,101935.53
2023-05-01T12:06:43.910Z,101933.83
2023-05-01T12:09:31.485Z,101935.27
2023-05-01T12:12:18.497Z,101935.59
2023-05-01T12:15:05.968Z,101933.52
2023-05-01T12:17:53.719Z,101935.10
2023-05-01T12:20:42.109Z,101931.77
2023-05-01T12:23:39.436Z,101932.34
2023-05-01T12:26:26.487Z,101932.95
2023-05-01T12:29:13.437Z,101934.96
2023-05-01T12:32:00.380Z,101938.20
2023-05-01T12:34:48.470Z,101938.23
2023-05-01T12:37:35.601Z,101935.25
2023-05-01T12:40:23.120Z,101939.92
2023-05-01T12:43:09.958Z,101940.14
2023-05-01T12:45:57.534Z,101942.53
2023-05-01T12:48:45.395Z,101941.25
2023-05-01T12:51:33.037Z,101941.13
2023-05-01T12:54:25.051Z,101942.19
2023-05-01T12:57:15.023Z,101946.20
2023-05-01T13:00:07.522Z,101946.70
2023-05-01T13:02:54.791Z,101943.15
2023-05-01T13:05:59.592Z,101939.40
2023-05-01T13:08:46.826Z,101939.62
2023-05-01T13:11:33.463Z,101939.36
2023-05-01T13:14:21.398Z,101939.64
2023-05-01T13:17:11.891Z,101940.61
2023-05-01T13:20:05.520Z,101942.22
2023-05-01T13:22:53.785Z,101940.39
2023-05-01T13:25:41.710Z,101943.49
2023-05-01T13:28:29.255Z,101936.71
2023-05-01T13:31:16.268Z,101932.98
2023-05-01T13:34:04.399Z,101933.31
2023-05-01T13:36:51.429Z,101930.10
2023-05-01T13:39:42.934Z,101933.34
2023-05-01T13:42:29.822Z,101930.94
2023-05-01T13:45:20.206Z,101933.70
2023-05-01T13:48:06.842Z,101936.48
2023-05-01T13:50:53.535Z,101936.13
2023-05-01T13:53:42.407Z,101933.48
2023-05-01T13:56:29.307Z,101933.72
2023-05-01T13:59:17.680Z,101933.23
2023-05-01T14:02:33.540Z,101937.16
2023-05-01T14:05:27.339Z,101942.17
2023-05-01T14:08:15.129Z,101945.29
2023-05-01T14:11:05.710Z,101945.46
2023-05-01T14:13:58.953Z,101941.69
2023-05-01T14:16:51.278Z,101944.30
2023-05-01T14:19:40.320Z,101950.83
2023-05-01T14:22:34.613Z,101951.21
2023-05-01T14:25:26.206Z,101950.02
2023-05-01T14:28:15.058Z,101949.84
2023-05-01T14:31:01.852Z,101952.05
2023-05-01T14:33:54.221Z,101948.16
2023-05-01T14:36:43.606Z,101953.63
2023-05-01T14:39:33.745Z,101955.47
2023-05-01T14:42:20.670Z,101959.83
2023-05-01T14:45:14.264Z,101959.41
2023-05-01T14:48:00.987Z,101960.36
2023-05-01T14:50:48.244Z,101958.83
2023-05-01T14:53:35.170Z,101964.93
2023-05-01T14:56:23.174Z,101966.45
2023-05-01T14:59:10.134Z,101967.79
2023-05-01T15:01:57.304Z,101965.36
2023-05-01T15:04:45.041Z,101967.14
2023-05-01T15:07:32.311Z,101963.48
2023-05-01T15:10:19.268Z,101958.41
2023-05-01T15:13:07.445Z,101964.27
2023-05-01T15:16:42.597Z,101964.23
2023-05-01T15:19:34.585Z,101964.49
2023-05-01T15:22:21.584Z,101960.11
2023-05-01T15:25:17.433Z,101962.80
2023-05-01T15:28:28.718Z,101969.80
2023-05-01T15:31:15.833Z,101969.20
2023-05-01T15:41:05.899Z,101968.39
2023-05-01T15:50:53.826Z,101971.19
2023-05-01T15:54:09.544Z,101974.99
2023-05-01T15:56:57.641Z,101976.06
2023-05-01T15:59:45.237Z,101980.27
2023-05-01T16:02:32.963Z,101984.64
2023-05-01T16:05:25.044Z,101984.20
2023-05-01T16:08:12.956Z,101986.06
2023-05-01T16:11:00.057Z,101991.77
2023-05-01T16:13:47.943Z,101996.24
2023-05-01T16:16:34.561Z,101996.17
2023-05-01T16:19:21.508Z,102000.89
2023-05-01T16:22:08.318Z,102002.23
2023-05-01T16:24:58.026Z,102007.55
2023-05-01T16:27:46.286Z,102006.91
2023-05-01T16:30:33.216Z,102010.66
2023-05-01T16:33:23.431Z,102014.06
2023-05-01T16:36:11.338Z,102012.83
2023-05-01T16:38:57.847Z,102018.01
2023-05-01T16:41:50.349Z,102018.95
2023-05-01T16:44:37.035Z,102022.25
2023-05-01T16:47:24.302Z,102025.91
2023-05-01T16:50:11.153Z,102024.66
2023-05-01T16:52:58.457Z,102028.63
2023-05-01T16:55:45.113Z,102033.21
2023-05-01T16:58:32.227Z,102034.78
2023-05-01T17:01:24.448Z,102035.85
2023-05-01T17:22:12.305Z,102050.60
2023-05-01T17:25:16.186Z,102057.94
2023-05-01T17:31:33.662Z,102058.50
2023-05-01T17:37:43.259Z,102077.54
2023-05-01T17:40:32.489Z,102080.23
2023-05-01T17:43:32.407Z,102085.98
2023-05-01T17:46:30.151Z,102087.36
2023-05-01T17:52:35.138Z,102097.17
2023-05-01T17:55:22.238Z,102103.60
2023-05-01T17:58:10.234Z,102105.45
2023-05-01T18:00:59.934Z,102109.13
2023-05-01T18:03:51.678Z,102116.27
2023-05-01T18:06:44.921Z,102125.44
2023-05-01T18:09:32.808Z,102124.83
2023-05-01T18:12:19.784Z,102129.68
2023-05-01T18:15:06.799Z,102129.86
2023-05-01T18:17:54.368Z,102129.98
2023-05-01T18:20:41.018Z,102132.70
2023-05-01T18:23:28.306Z,102136.92
2023-05-01T18:26:15.098Z,102141.75
2023-05-01T18:29:02.708Z,102143.03
2023-05-01T18:31:53.172Z,102145.45
2023-05-01T18:34:40.206Z,102150.55
2023-05-01T18:37:27.310Z,102157.73
2023-05-01T18:40:14.453Z,102158.28
2023-05-01T18:43:01.432Z,102159.94
2023-05-01T18:45:47.898Z,102162.71
2023-05-01T18:48:34.426Z,102163.00
2023-05-01T18:51:21.558Z,102167.77
2023-05-01T18:54:10.101Z,102166.09
2023-05-01T18:56:57.889Z,102165.21
2023-05-01T18:59:49.797Z,102167.88
2023-05-01T19:02:39.839Z,102170.17
2023-05-01T19:05:59.089Z,102174.99
2023-05-01T19:08:57.316Z,102180.12
2023-05-01T19:11:44.067Z,102183.40
2023-05-01T19:14:31.223Z,102189.33
2023-05-01T19:20:35.241Z,102193.00
2023-05-01T19:30:53.018Z,102197.34
2023-05-01T19:33:41.303Z,102201.83
2023-05-01T19:36:28.186Z,102203.98
2023-05-01T19:39:15.122Z,102203.27
2023-05-01T19:42:03.236Z,102206.48
2023-05-01T19:44:50.054Z,102209.48
2023-05-01T19:47:37.145Z,102212.86
2023-05-01T19:50:23.774Z,102217.15
2023-05-01T19:53:12.692Z,102217.55
2023-05-01T19:55:59.673Z,102215.10
2023-05-01T19:58:47.617Z,102217.98
2023-05-01T20:01:37.251Z,102215.30
2023-05-01T20:04:24.621Z,102217.46
2023-05-01T20:07:12.193Z,102216.95
2023-05-01T20:10:00.518Z,102219.11
2023-05-01T20:12:48.319Z,102217.69
2023-05-01T20:15:40.035Z,102221.98
2023-05-01T20:18:26.795Z,102219.15
2023-05-01T20:21:13.875Z,102225.55
2023-05-01T20:24:00.994Z,102224.86
2023-05-01T20:26:48.112Z,102228.24
2023-05-01T20:29:35.154Z,102225.77
2023-05-01T20:32:21.765Z,102225.98
2023-05-01T20:35:10.261Z,102228.80
2023-05-01T20:37:57.598Z,102229.72
2023-05-01T20:40:44.641Z,102234.14
2023-05-01T20:43:31.628Z,102236.27
2023-05-01T20:46:20.608Z,102239.84
2023-05-01T20:49:10.112Z,102240.02
2023-05-01T20:51:58.657Z,102248.87
2023-05-01T20:54:45.971Z,102248.88
2023-05-01T20:57:34.841Z,102256.47
2023-05-01T21:00:23.762Z,102256.42
2023-05-01T21:03:11.008Z,102257.46
2023-05-01T21:05:59.195Z,102255.16
2023-05-01T21:08:47.524Z,102255.33
2023-05-01T21:11:34.462Z,102254.59
2023-05-01T21:14:21.373Z,102253.33
2023-05-01T21:17:09.064Z,102255.80
2023-05-01T21:19:56.284Z,102259.50
2023-05-01T21:22:45.532Z,102258.92
2023-05-01T21:25:32.779Z,102259.61
2023-05-01T21:28:19.523Z,102263.84
2023-05-01T21:31:06.180Z,102266.81
2023-05-01T21:33:53.456Z,102272.45
2023-05-01T21:36:46.458Z,102272.10
2023-05-01T21:39:34.519Z,102273.14
2023-05-01T21:42:21.862Z,102275.45
2023-05-01T21:45:11.635Z,102269.93
2023-05-01T21:48:04.590Z,102275.73
2023-05-01T21:51:10.253Z,102275.16
2023-05-01T21:54:00.894Z,102278.46
2023-05-01T21:56:48.299Z,102278.95
2023-05-01T21:59:37.907Z,102282.09
2023-05-01T22:02:27.687Z,102279.75
2023-05-01T22:05:15.465Z,102282.20
2023-05-01T22:08:02.765Z,102278.98
2023-05-01T22:10:50.853Z,102275.09
2023-05-01T22:17:02.422Z,102276.63
2023-05-01T22:23:57.275Z,102278.67
2023-05-01T22:30:38.304Z,102280.27
2023-05-01T22:38:14.541Z,102286.86
2023-05-01T22:41:30.973Z,102286.75
2023-05-01T22:48:16.083Z,102283.66
2023-05-01T22:54:31.676Z,102281.84
2023-05-01T22:57:19.062Z,102278.88
2023-05-01T23:00:06.901Z,102279.29
2023-05-01T23:10:51.418Z,102263.77
2023-05-01T23:13:51.359Z,102262.32
2023-05-01T23:16:44.744Z,102259.48
2023-05-01T23:23:13.966Z,102262.89
2023-05-01T23:26:01.569Z,102262.98
2023-05-01T23:28:48.622Z,102260.13
2023-05-01T23:31:36.329Z,102261.04
2023-05-01T23:34:23.781Z,102264.12
2023-05-01T23:37:10.219Z,102264.02
2023-05-01T23:39:58.894Z,102258.51
2023-05-01T23:42:46.756Z,102257.26
2023-05-01T23:45:33.407Z,102255.66
2023-05-01T23:48:20.637Z,102254.41
2023-05-01T23:51:07.501Z,102252.48
2023-05-01T23:53:54.117Z,102253.11
2023-05-01T23:56:41.073Z,102249.00
2023-05-01T23:59:28.028Z,102257.46
